Time;durP1;ratioP1;P1;durP2;ratioP2;P2;SDS_P1;SDS_P2;PMS_P1;PMS_P2;Temp;Humidity;BMP_temperature;BMP_pressure;BME280_temperature;BME280_humidity;BME280_pressure;Samples;Min_cycle;Max_cycle;Signal;HPM_P1;HPM_P2
2021/01/22 00:00:07;;;;;;;0.30;0.30;;;;;;;20.73;38.89;97820.97;5072990;28;20322;-43
2021/01/22 00:02:34;;;;;;;0.30;0.30;;;;;;;20.72;39.12;97811.19;5074015;28;20191;-35
2021/01/22 00:05:00;;;;;;;0.30;0.30;;;;;;;20.72;39.33;97811.19;5073800;28;20259;-34
2021/01/22 00:07:26;;;;;;;0.40;0.30;;;;;;;20.73;39.30;97801.94;5073591;28;20241;-47
2021/01/22 00:09:52;;;;;;;0.40;0.40;;;;;;;20.73;39.21;97791.06;5073690;28;20175;-47
2021/01/22 00:12:19;;;;;;;0.30;0.30;;;;;;;20.73;39.34;97800.06;5073657;28;20690;-34
2021/01/22 00:14:47;;;;;;;0.30;0.23;;;;;;;20.75;39.40;97799.78;5073631;28;20266;-36
2021/01/22 00:17:13;;;;;;;0.30;0.30;;;;;;;20.74;39.45;97798.16;5071832;28;20211;-37
2021/01/22 00:19:39;;;;;;;0.30;0.30;;;;;;;20.76;39.38;97810.41;5072671;28;20179;-38
2021/01/22 00:22:06;;;;;;;0.30;0.30;;;;;;;20.76;39.50;97801.44;5072641;28;20282;-34
2021/01/22 00:24:32;;;;;;;0.30;0.30;;;;;;;20.77;39.63;97803.09;5073295;28;20191;-46
2021/01/22 00:26:58;;;;;;;0.37;0.37;;;;;;;20.78;39.62;97782.97;5073342;28;20672;-46
2021/01/22 00:29:24;;;;;;;0.30;0.30;;;;;;;20.78;39.37;97777.53;5073384;28;20179;-46
2021/01/22 00:31:50;;;;;;;0.33;0.33;;;;;;;20.80;39.66;97769.94;5073276;28;20208;-46
2021/01/22 00:34:16;;;;;;;0.20;0.20;;;;;;;20.80;39.35;97780.81;5073240;28;20180;-46
2021/01/22 00:36:42;;;;;;;0.30;0.30;;;;;;;20.79;39.59;97782.72;5072073;28;20551;-38
2021/01/22 00:39:08;;;;;;;0.20;0.20;;;;;;;20.80;39.46;97776.19;5072999;28;20250;-47
2021/01/22 00:41:34;;;;;;;0.30;0.30;;;;;;;20.80;39.31;97772.66;5073224;28;20179;-44
2021/01/22 00:44:00;;;;;;;0.30;0.30;;;;;;;20.80;39.22;97772.66;5073240;28;20184;-44
2021/01/22 00:46:26;;;;;;;0.30;0.30;;;;;;;20.80;39.12;97764.50;5073140;28;20199;-44
2021/01/22 00:48:52;;;;;;;0.40;0.40;;;;;;;20.79;39.11;97768.31;5073190;28;20233;-44
2021/01/22 00:51:18;;;;;;;0.40;0.40;;;;;;;20.79;39.09;97757.44;5073150;28;20241;-44
2021/01/22 00:53:44;;;;;;;0.30;0.30;;;;;;;20.78;39.20;97755.78;5072512;28;20191;-44
2021/01/22 00:56:10;;;;;;;0.23;0.20;;;;;;;20.77;39.09;97749.53;5072932;28;20707;-44
2021/01/22 00:58:37;;;;;;;0.20;0.20;;;;;;;20.76;39.05;97755.22;5072847;28;20294;-44
2021/01/22 01:01:03;;;;;;;0.30;0.30;;;;;;;20.75;39.21;97756.31;5072966;28;20187;-36
2021/01/22 01:03:29;;;;;;;0.20;0.20;;;;;;;20.74;38.92;97751.94;5072792;28;20528;-41
2021/01/22 01:05:55;;;;;;;0.30;0.30;;;;;;;20.73;39.14;97742.16;5072782;28;20294;-40
2021/01/22 01:08:21;;;;;;;0.30;0.30;;;;;;;20.73;39.12;97747.59;5072965;28;20237;-42
2021/01/22 01:10:47;;;;;;;0.30;0.30;;;;;;;20.72;39.07;97737.78;5072985;28;20192;-41
2021/01/22 01:13:13;;;;;;;0.30;0.30;;;;;;;20.71;39.08;97745.13;5072874;28;20270;-41
2021/01/22 01:15:39;;;;;;;0.20;0.20;;;;;;;20.71;39.09;97734.25;5072760;28;20687;-41
2021/01/22 01:18:05;;;;;;;0.30;0.30;;;;;;;20.73;39.05;97742.16;5072732;28;20234;-36
2021/01/22 01:20:31;;;;;;;0.40;0.40;;;;;;;20.73;39.21;97758.47;5072744;28;20289;-38
2021/01/22 01:22:58;;;;;;;0.47;0.47;;;;;;;20.73;39.45;97739.44;5072699;28;20211;-33
2021/01/22 01:25:24;;;;;;;0.30;0.30;;;;;;;20.73;39.53;97820.97;5071681;28;20282;-36
2021/01/22 01:27:50;;;;;;;0.23;0.23;;;;;;;20.73;39.60;97883.50;5072579;28;20175;-36
2021/01/22 01:30:17;;;;;;;0.47;0.40;;;;;;;20.73;39.39;97895.19;5072632;28;20231;-40
2021/01/22 01:32:43;;;;;;;0.30;0.30;;;;;;;20.75;39.48;97913.97;5072522;28;20187;-40
2021/01/22 01:35:09;;;;;;;0.30;0.30;;;;;;;20.76;39.42;97910.16;5072707;28;20329;-45
2021/01/22 01:37:36;;;;;;;0.30;0.30;;;;;;;20.75;39.43;97914.78;5072587;28;20215;-44
2021/01/22 01:40:02;;;;;;;0.27;0.27;;;;;;;20.76;39.39;97926.47;5072653;28;20188;-35
2021/01/22 01:42:28;;;;;;;0.30;0.30;;;;;;;20.76;39.52;97929.19;5072442;28;20179;-37
2021/01/22 01:44:54;;;;;;;0.30;0.30;;;;;;;20.77;39.48;97941.72;5072486;28;20191;-38
2021/01/22 01:47:20;;;;;;;0.30;0.20;;;;;;;20.77;39.30;97960.75;5071274;28;20204;-40
2021/01/22 01:49:47;;;;;;;0.40;0.40;;;;;;;20.77;39.78;97971.63;5072417;28;20206;-39
2021/01/22 01:52:13;;;;;;;0.20;0.20;;;;;;;20.76;39.34;97983.56;5071465;28;20633;-40
2021/01/22 01:54:39;;;;;;;0.50;0.30;;;;;;;20.76;39.45;97989.00;5072382;28;20180;-40
2021/01/22 01:57:05;;;;;;;0.20;0.20;;;;;;;20.76;39.27;98013.47;5072011;28;20561;-42
2021/01/22 01:59:31;;;;;;;0.30;0.30;;;;;;;20.74;39.17;98027.31;5072439;28;20641;-43
2021/01/22 02:01:57;;;;;;;0.20;0.20;;;;;;;20.73;39.09;98031.09;5072418;28;20179;-40
2021/01/22 02:04:24;;;;;;;0.20;0.20;;;;;;;20.73;39.04;98046.59;5072424;28;20293;-43
2021/01/22 02:06:50;;;;;;;0.30;0.30;;;;;;;20.72;39.30;98066.69;5075487;28;20210;-42
2021/01/22 02:09:16;;;;;;;0.30;0.30;;;;;;;20.70;39.20;98077.00;5076072;28;20190;-44
2021/01/22 02:11:42;;;;;;;0.30;0.30;;;;;;;20.70;39.01;98082.44;5075906;28;20673;-44
2021/01/22 02:14:08;;;;;;;0.30;0.30;;;;;;;20.70;38.98;98104.19;5075162;28;20522;-40
2021/01/22 02:16:34;;;;;;;0.27;0.27;;;;;;;20.69;39.10;98116.94;5074580;28;20778;-43
2021/01/22 02:19:01;;;;;;;0.23;0.23;;;;;;;20.70;39.34;98139.50;5074812;28;20214;-40
2021/01/22 02:21:27;;;;;;;0.30;0.30;;;;;;;20.69;39.18;98137.88;5074822;28;20270;-42
2021/01/22 02:24:00;;;;;;;0.40;0.40;;;;;;;20.71;39.49;98149.31;5075841;28;20184;-41
2021/01/22 02:26:29;;;;;;;0.30;0.30;;;;;;;20.71;39.60;98163.72;5074828;28;20287;-35
2021/01/22 02:29:07;;;;;;;0.40;0.30;;;;;;;20.72;39.42;98176.25;5076007;28;20302;-35
2021/01/22 02:31:39;;;;;;;0.20;0.20;;;;;;;20.72;39.42;98187.13;5074733;28;20191;-34
2021/01/22 02:34:06;;;;;;;0.30;0.30;;;;;;;20.71;39.43;98187.38;5074762;28;20186;-37
2021/01/22 02:36:34;;;;;;;0.30;0.30;;;;;;;20.71;39.61;98196.34;5074378;28;20207;-34
2021/01/22 02:39:04;;;;;;;0.30;0.30;;;;;;;20.74;39.44;98190.41;5057821;28;20226;-41
2021/01/22 02:41:31;;;;;;;0.30;0.30;;;;;;;20.72;39.46;98202.63;5075407;28;20176;-43
2021/01/22 02:43:57;;;;;;;0.30;0.30;;;;;;;20.72;39.65;98199.91;5074433;28;20187;-43
2021/01/22 02:46:23;;;;;;;0.30;0.30;;;;;;;20.73;39.42;98215.13;5074298;28;20520;-39
2021/01/22 02:48:49;;;;;;;0.40;0.40;;;;;;;20.73;39.64;98212.41;5074426;28;20210;-43
2021/01/22 02:51:15;;;;;;;0.40;0.30;;;;;;;20.73;39.50;98226.00;5075288;28;20187;-42
2021/01/22 02:53:41;;;;;;;0.30;0.30;;;;;;;20.74;39.40;98214.06;5075581;28;20261;-42
2021/01/22 02:56:11;;;;;;;0.20;0.20;;;;;;;20.74;39.47;98211.34;5075373;28;20209;-41
2021/01/22 02:59:06;;;;;;;0.23;0.23;;;;;;;20.73;39.17;98232.28;5074278;28;20234;-45
2021/01/22 03:01:33;;;;;;;0.20;0.20;;;;;;;20.72;39.18;98246.09;5073978;28;20195;-45
2021/01/22 03:04:04;;;;;;;0.20;0.20;;;;;;;20.71;39.30;98241.75;5074157;28;20199;-45
2021/01/22 03:06:33;;;;;;;0.30;0.20;;;;;;;20.70;39.29;98237.38;5073951;28;20231;-45
2021/01/22 03:09:00;;;;;;;0.30;0.30;;;;;;;20.67;39.09;98238.69;5074137;28;20566;-45
2021/01/22 03:11:26;;;;;;;0.30;0.30;;;;;;;20.66;39.20;98247.91;5074929;28;20234;-45
2021/01/22 03:13:53;;;;;;;0.30;0.30;;;;;;;20.66;39.10;98268.81;5073948;28;20684;-45
2021/01/22 03:16:19;;;;;;;0.20;0.20;;;;;;;20.66;39.35;98268.81;5074205;28;20246;-45
2021/01/22 03:18:58;;;;;;;0.20;0.20;;;;;;;20.68;39.34;98261.25;5073803;28;20762;-45
2021/01/22 03:21:24;;;;;;;0.20;0.20;;;;;;;20.66;39.38;98268.81;5073831;28;20258;-45
2021/01/22 03:23:50;;;;;;;0.20;0.20;;;;;;;20.66;39.30;98285.13;5074802;28;20253;-45
2021/01/22 03:26:16;;;;;;;0.30;0.30;;;;;;;20.65;39.36;98289.75;5074603;28;20218;-45
2021/01/22 03:28:42;;;;;;;0.20;0.20;;;;;;;20.66;39.54;98287.84;5074473;28;20210;-45
2021/01/22 03:31:08;;;;;;;0.27;0.27;;;;;;;20.66;39.49;98288.69;5074481;28;20525;-40
2021/01/22 03:33:34;;;;;;;0.30;0.30;;;;;;;20.67;39.67;98298.50;5074472;28;20243;-45
2021/01/22 03:36:00;;;;;;;0.30;0.30;;;;;;;20.68;39.52;98299.31;5074235;28;20203;-47
2021/01/22 03:38:26;;;;;;;0.20;0.20;;;;;;;20.69;39.61;98306.41;5074263;28;20296;-47
2021/01/22 03:40:52;;;;;;;0.10;0.10;;;;;;;20.70;39.74;98313.47;5074370;28;20560;-42
2021/01/22 03:43:18;;;;;;;0.30;0.20;;;;;;;20.71;39.58;98312.41;5074285;28;20190;-42
2021/01/22 03:45:44;;;;;;;0.30;0.30;;;;;;;20.71;39.52;98317.84;5074246;28;20199;-40
2021/01/22 03:48:10;;;;;;;0.30;0.30;;;;;;;20.71;39.37;98321.41;5074280;28;20563;-43
2021/01/22 03:50:37;;;;;;;0.20;0.20;;;;;;;20.72;39.40;98327.66;5074174;28;20175;-46
2021/01/22 03:53:03;;;;;;;0.20;0.20;;;;;;;20.73;39.44;98334.75;5074079;28;20227;-38
2021/01/22 03:55:29;;;;;;;0.10;0.10;;;;;;;20.71;39.52;98343.16;5073970;28;20190;-34
2021/01/22 03:57:55;;;;;;;0.20;0.20;;;;;;;20.71;39.23;98345.03;5073767;28;20215;-46
2021/01/22 04:00:21;;;;;;;0.20;0.20;;;;;;;20.70;39.53;98346.94;5072862;28;20227;-47
2021/01/22 04:02:47;;;;;;;0.20;0.20;;;;;;;20.70;39.20;98346.09;5073855;28;20180;-47
2021/01/22 04:05:13;;;;;;;0.20;0.20;;;;;;;20.70;39.20;98351.53;5073860;28;20271;-47
2021/01/22 04:07:39;;;;;;;0.20;0.20;;;;;;;20.68;39.18;98353.69;5073755;28;20249;-46
2021/01/22 04:10:06;;;;;;;0.20;0.20;;;;;;;20.68;39.20;98342.81;5073815;28;20199;-46
2021/01/22 04:12:33;;;;;;;0.30;0.30;;;;;;;20.66;39.31;98353.91;5073398;28;20570;-45
2021/01/22 04:14:59;;;;;;;0.17;0.17;;;;;;;20.65;39.20;98373.19;5072320;28;20527;-46
2021/01/22 04:17:25;;;;;;;0.20;0.20;;;;;;;20.64;39.09;98363.38;5073207;28;20215;-46
2021/01/22 04:19:51;;;;;;;0.20;0.20;;;;;;;20.63;39.29;98372.59;5073670;28;20574;-46
2021/01/22 04:22:17;;;;;;;0.10;0.10;;;;;;;20.63;39.21;98381.59;5073504;28;20202;-46
2021/01/22 04:24:43;;;;;;;0.20;0.20;;;;;;;20.63;39.15;98388.91;5073446;28;20176;-46
2021/01/22 04:27:09;;;;;;;0.20;0.20;;;;;;;20.63;39.39;98386.19;5073099;28;20205;-46
2021/01/22 04:29:38;;;;;;;0.20;0.20;;;;;;;20.64;39.33;98379.69;5072833;28;20190;-44
2021/01/22 04:32:04;;;;;;;0.20;0.20;;;;;;;20.63;39.33;98383.47;5073407;28;20176;-44
2021/01/22 04:34:30;;;;;;;0.17;0.17;;;;;;;20.62;39.50;98385.38;5073503;28;20203;-44
2021/01/22 04:36:56;;;;;;;0.20;0.20;;;;;;;20.63;39.47;98387.00;5073252;28;20200;-45
2021/01/22 04:39:22;;;;;;;0.20;0.20;;;;;;;20.64;39.49;98396.00;5073278;28;20229;-45
2021/01/22 04:41:48;;;;;;;0.23;0.23;;;;;;;20.64;39.54;98385.13;5073195;28;20195;-45
2021/01/22 04:44:14;;;;;;;0.10;0.10;;;;;;;20.65;39.68;98386.78;5072226;28;20179;-34
2021/01/22 04:46:40;;;;;;;0.10;0.10;;;;;;;20.65;39.56;98387.59;5072122;28;20211;-34
2021/01/22 04:49:07;;;;;;;0.20;0.20;;;;;;;20.66;39.62;98383.81;5055497;28;20656;-45
2021/01/22 04:51:34;;;;;;;0.20;0.20;;;;;;;20.67;39.58;98393.63;5073095;28;20175;-41
2021/01/22 04:54:13;;;;;;;0.20;0.20;;;;;;;20.69;39.64;98390.66;5072950;28;20524;-45
2021/01/22 04:56:42;;;;;;;0.20;0.20;;;;;;;20.68;39.62;98395.28;5072852;28;20195;-37
2021/01/22 04:59:22;;;;;;;0.20;0.20;;;;;;;20.69;39.53;98396.09;5072136;28;20217;-34
2021/01/22 05:01:49;;;;;;;0.20;0.20;;;;;;;20.69;39.48;98393.38;5073060;28;20183;-38
2021/01/22 05:04:16;;;;;;;0.30;0.30;;;;;;;20.67;39.43;98396.34;5072100;28;20202;-34
2021/01/22 05:06:42;;;;;;;0.13;0.13;;;;;;;20.68;39.24;98391.72;5071806;28;20208;-39
2021/01/22 05:09:08;;;;;;;0.20;0.20;;;;;;;20.66;39.27;98389.25;5071926;28;20180;-46
2021/01/22 05:11:35;;;;;;;0.20;0.20;;;;;;;20.65;39.47;98398.47;5072840;28;20203;-47
2021/01/22 05:14:01;;;;;;;0.20;0.20;;;;;;;20.65;39.18;98401.19;5071876;28;20183;-47
2021/01/22 05:16:27;;;;;;;0.20;0.20;;;;;;;20.64;39.11;98401.44;5071516;28;20239;-47
2021/01/22 05:18:53;;;;;;;0.13;0.13;;;;;;;20.62;39.23;98404.41;5072754;28;20183;-47
2021/01/22 05:21:20;;;;;;;0.20;0.20;;;;;;;20.63;39.10;98413.38;5071765;28;20195;-47
2021/01/22 05:23:46;;;;;;;0.20;0.20;;;;;;;20.61;39.27;98412.78;5071870;28;20640;-47
2021/01/22 05:26:14;;;;;;;0.27;0.27;;;;;;;20.62;39.26;98409.00;5071718;28;20282;-46
2021/01/22 05:28:41;;;;;;;0.10;0.10;;;;;;;20.61;39.35;98407.34;5072337;28;20784;-46
2021/01/22 05:31:08;;;;;;;0.17;0.17;;;;;;;20.63;39.13;98402.50;5071739;28;20249;-34
2021/01/22 05:33:35;;;;;;;0.20;0.20;;;;;;;20.62;39.22;98419.88;5071999;28;20344;-37
2021/01/22 05:36:29;;;;;;;0.10;0.10;;;;;;;20.64;39.48;98418.56;5071828;28;20211;-35
2021/01/22 05:38:59;;;;;;;0.20;0.20;;;;;;;20.63;39.46;98419.63;5072399;28;20199;-34
2021/01/22 05:41:26;;;;;;;0.20;0.20;;;;;;;20.63;39.55;98416.91;5076598;28;20179;-33
2021/01/22 05:43:52;;;;;;;0.10;0.10;;;;;;;20.62;39.57;98417.16;5075597;28;20629;-40
2021/01/22 05:46:23;;;;;;;0.20;0.20;;;;;;;20.65;39.66;98430.28;5076361;28;20277;-41
2021/01/22 05:49:07;;;;;;;0.27;0.23;;;;;;;20.65;39.60;98427.56;5076610;28;20184;-41
2021/01/22 05:51:33;;;;;;;0.20;0.20;;;;;;;20.65;39.38;98419.41;5075884;28;20257;-37
2021/01/22 05:53:59;;;;;;;0.30;0.30;;;;;;;20.66;39.55;98421.03;5075271;28;20687;-41
2021/01/22 05:56:25;;;;;;;0.23;0.23;;;;;;;20.65;39.46;98420.22;5076227;28;20210;-41
2021/01/22 05:58:51;;;;;;;0.10;0.10;;;;;;;20.66;39.58;98423.78;5075165;28;20680;-41
2021/01/22 06:01:21;;;;;;;0.30;0.30;;;;;;;20.68;39.64;98429.78;5076227;28;20222;-42
2021/01/22 06:03:49;;;;;;;0.20;0.20;;;;;;;20.66;39.37;98432.75;5076130;28;20191;-40
2021/01/22 06:06:16;;;;;;;0.30;0.30;;;;;;;20.66;39.45;98437.34;5076100;28;20269;-42
2021/01/22 06:08:54;;;;;;;0.20;0.20;;;;;;;20.68;39.18;98435.22;5076104;28;20179;-39
2021/01/22 06:11:22;;;;;;;0.20;0.20;;;;;;;20.65;39.39;98431.09;5074964;28;20179;-41
2021/01/22 06:13:49;;;;;;;0.27;0.27;;;;;;;20.65;39.13;98441.13;5076030;28;20180;-40
2021/01/22 06:16:16;;;;;;;0.10;0.10;;;;;;;20.64;39.28;98450.38;5075955;28;20277;-44
2021/01/22 06:18:49;;;;;;;0.20;0.20;;;;;;;20.64;38.87;98455.81;5075154;28;20280;-35
2021/01/22 06:21:19;;;;;;;0.20;0.20;;;;;;;20.63;39.06;98454.16;5075084;28;20211;-44
2021/01/22 06:23:48;;;;;;;0.23;0.23;;;;;;;20.60;39.14;98450.00;5075748;28;20214;-45
2021/01/22 06:26:15;;;;;;;0.20;0.20;;;;;;;20.61;39.31;98456.28;5074704;28;20555;-44
2021/01/22 06:28:42;;;;;;;0.20;0.20;;;;;;;20.60;39.36;98450.00;5075658;28;20168;-44
2021/01/22 06:31:09;;;;;;;0.20;0.20;;;;;;;20.62;39.28;98452.50;5075594;28;20184;-45
2021/01/22 06:33:35;;;;;;;0.20;0.20;;;;;;;20.61;39.22;98448.94;5074642;28;20260;-44
2021/01/22 06:36:03;;;;;;;0.20;0.20;;;;;;;20.61;39.38;98467.16;5071891;28;20657;-44
2021/01/22 06:38:30;;;;;;;0.10;0.10;;;;;;;20.62;39.65;98463.38;5071301;28;20383;-44
2021/01/22 06:40:56;;;;;;;0.30;0.30;;;;;;;20.63;39.38;98465.03;5054467;28;20688;-44
2021/01/22 06:43:22;;;;;;;0.53;0.10;;;;;;;20.62;39.87;98474.25;5054673;28;20270;-40
2021/01/22 06:45:48;;;;;;;0.30;0.30;;;;;;;20.62;40.13;98476.97;5062856;28;20261;-35
2021/01/22 06:48:14;;;;;;;0.60;0.60;;;;;;;20.63;39.99;98481.31;5068897;28;20187;-35
2021/01/22 06:50:40;;;;;;;0.60;0.50;;;;;;;20.64;40.20;98478.38;5064320;28;20652;-35
2021/01/22 06:53:15;;;;;;;0.67;0.60;;;;;;;20.67;40.31;98483.34;5072573;28;20280;-35
2021/01/22 06:55:53;;;;;;;0.37;0.37;;;;;;;20.68;39.97;98490.41;5073468;28;20297;-35
2021/01/22 06:58:26;;;;;;;0.53;0.53;;;;;;;20.69;40.19;98488.53;5075080;28;20208;-36
2021/01/22 07:00:53;;;;;;;1.13;0.60;;;;;;;20.68;39.92;98500.47;5075071;28;20191;-32
2021/01/22 07:03:37;;;;;;;1.03;0.60;;;;;;;20.70;40.07;98493.72;5075051;28;20629;-34
2021/01/22 07:06:07;;;;;;;0.57;0.50;;;;;;;20.70;40.04;98501.06;5075054;28;20214;-33
2021/01/22 07:08:55;;;;;;;0.70;0.60;;;;;;;20.69;39.87;98497.50;5075203;28;20578;-33
2021/01/22 07:11:22;;;;;;;1.00;0.50;;;;;;;20.68;39.92;98512.16;5075055;28;20553;-33
2021/01/22 07:13:48;;;;;;;0.70;0.50;;;;;;;20.67;39.88;98509.69;5073981;28;20513;-33
2021/01/22 07:16:18;;;;;;;1.67;0.60;;;;;;;20.68;39.69;98523.03;5074661;28;20214;-34
2021/01/22 07:18:51;;;;;;;0.80;0.80;;;;;;;20.66;39.58;98519.75;5074695;28;20745;-34
2021/01/22 07:21:23;;;;;;;0.70;0.53;;;;;;;20.66;39.58;98529.78;5074773;28;20268;-33
2021/01/22 07:24:05;;;;;;;0.50;0.50;;;;;;;20.65;39.67;98528.13;5073816;28;20188;-32
2021/01/22 07:26:44;;;;;;;0.50;0.50;;;;;;;20.64;39.38;98531.91;5074360;28;20259;-32
2021/01/22 07:29:20;;;;;;;0.50;0.50;;;;;;;20.62;39.71;98529.44;5074559;28;20203;-33
2021/01/22 07:31:53;;;;;;;0.50;0.47;;;;;;;20.61;39.41;98538.66;5074576;28;20183;-41
2021/01/22 07:34:54;;;;;;;0.50;0.50;;;;;;;20.61;39.40;98538.66;5074590;28;20184;-45
2021/01/22 07:37:24;;;;;;;0.80;0.50;;;;;;;20.60;39.68;98545.16;5035597;28;20219;-44
2021/01/22 07:39:51;;;;;;;0.57;0.50;;;;;;;20.60;39.74;98547.03;5070405;28;20629;-46
2021/01/22 07:42:19;;;;;;;1.53;0.50;;;;;;;20.58;39.82;98554.56;5073449;28;20252;-47
2021/01/22 07:44:52;;;;;;;0.50;0.50;;;;;;;20.59;39.59;98550.81;5074146;28;20206;-47
2021/01/22 07:47:29;;;;;;;0.60;0.40;;;;;;;20.60;39.69;98552.47;5074074;28;20289;-47
2021/01/22 07:49:59;;;;;;;0.40;0.40;;;;;;;20.59;39.68;98546.22;5072960;28;20191;-47
2021/01/22 07:52:25;;;;;;;0.50;0.50;;;;;;;20.59;39.89;98562.53;5073862;28;20188;-47
2021/01/22 07:54:52;;;;;;;0.60;0.43;;;;;;;20.60;39.73;98566.06;5073894;28;20192;-47
2021/01/22 07:57:25;;;;;;;0.40;0.37;;;;;;;20.64;39.77;98569.97;5072868;28;20211;-33
2021/01/22 07:59:51;;;;;;;0.50;0.50;;;;;;;20.63;39.85;98568.31;5074231;28;20274;-34
2021/01/22 08:02:21;;;;;;;0.53;0.40;;;;;;;20.63;40.12;98569.13;5073824;28;20542;-43
2021/01/22 08:04:55;;;;;;;0.60;0.40;;;;;;;20.65;39.94;98572.44;5073995;28;20282;-34
2021/01/22 08:07:51;;;;;;;0.50;0.50;;;;;;;20.67;39.85;98575.75;5072795;28;20636;-33
2021/01/22 08:10:17;;;;;;;0.63;0.57;;;;;;;20.67;39.92;98580.38;5068316;28;20206;-44
2021/01/22 08:12:59;;;;;;;0.50;0.50;;;;;;;20.68;39.76;98577.41;5073529;28;20530;-47
2021/01/22 08:15:26;;;;;;;0.57;0.57;;;;;;;20.67;39.86;98588.53;5072317;28;20231;-43
2021/01/22 08:17:52;;;;;;;0.47;0.47;;;;;;;20.66;39.79;98584.97;5073629;28;20223;-46
2021/01/22 08:20:19;;;;;;;0.40;0.40;;;;;;;20.67;39.86;98585.81;5073416;28;20612;-47
2021/01/22 08:22:52;;;;;;;0.47;0.47;;;;;;;20.68;39.80;98593.72;5072704;28;20318;-47
2021/01/22 08:25:45;;;;;;;0.50;0.50;;;;;;;20.66;39.73;98593.13;5072888;28;20191;-33
2021/01/22 08:28:11;;;;;;;0.40;0.40;;;;;;;20.65;39.42;98590.66;5067521;28;20578;-44
2021/01/22 08:30:37;;;;;;;0.43;0.43;;;;;;;20.64;39.43;98597.16;5072379;28;20194;-44
2021/01/22 08:33:04;;;;;;;0.67;0.60;;;;;;;20.64;39.49;98603.41;5072154;28;20201;-43
2021/01/22 08:35:30;;;;;;;0.50;0.40;;;;;;;20.63;39.54;98600.94;5072877;28;20199;-44
2021/01/22 08:37:57;;;;;;;0.50;0.50;;;;;;;20.62;39.42;98599.28;5071852;28;20212;-44
2021/01/22 08:40:28;;;;;;;0.47;0.47;;;;;;;20.61;39.34;98608.50;5072049;28;20260;-44
2021/01/22 08:42:58;;;;;;;0.50;0.50;;;;;;;20.61;39.34;98609.31;5072139;28;20219;-44
2021/01/22 08:45:24;;;;;;;0.60;0.60;;;;;;;20.60;39.22;98612.28;5072977;28;20199;-43
2021/01/22 08:47:50;;;;;;;0.43;0.43;;;;;;;20.59;39.48;98619.59;5071624;28;20490;-43
2021/01/22 08:50:17;;;;;;;0.40;0.40;;;;;;;20.60;39.36;98615.00;5072021;28;20198;-44
2021/01/22 08:52:43;;;;;;;0.50;0.50;;;;;;;20.59;39.49;98614.16;5072501;28;20574;-44
2021/01/22 08:55:22;;;;;;;0.40;0.40;;;;;;;20.61;39.51;98619.38;5049566;28;20195;-44
2021/01/22 08:58:09;;;;;;;0.60;0.60;;;;;;;20.60;39.72;98618.53;5052612;28;20800;-44
2021/01/22 09:00:35;;;;;;;0.50;0.50;;;;;;;20.60;39.62;98623.16;5064628;28;20274;-44
2021/01/22 09:03:02;;;;;;;0.47;0.47;;;;;;;20.60;39.82;98625.88;5072898;28;20527;-44
2021/01/22 09:05:28;;;;;;;0.53;0.40;;;;;;;20.61;39.68;98624.81;5072853;28;20286;-44
2021/01/22 09:08:10;;;;;;;0.50;0.50;;;;;;;20.64;39.56;98621.63;5072786;28;20184;-43
2021/01/22 09:10:41;;;;;;;0.40;0.40;;;;;;;20.64;39.75;98624.34;5071623;28;20179;-44
2021/01/22 09:13:10;;;;;;;0.40;0.40;;;;;;;20.63;39.93;98625.41;5072924;28;20203;-43
2021/01/22 09:15:36;;;;;;;1.17;0.53;;;;;;;20.64;39.84;98629.78;5070638;28;20292;-44
2021/01/22 09:18:13;;;;;;;0.50;0.50;;;;;;;20.63;39.70;98631.66;5071883;28;20223;-44
2021/01/22 09:20:41;;;;;;;0.40;0.40;;;;;;;20.64;39.71;98640.63;5063163;28;20207;-44
2021/01/22 09:23:07;;;;;;;0.50;0.50;;;;;;;20.65;39.67;98642.28;5052032;28;20275;-43
2021/01/22 09:25:33;;;;;;;0.40;0.40;;;;;;;20.66;39.62;98654.81;5052616;28;20257;-45
2021/01/22 09:27:59;;;;;;;0.43;0.43;;;;;;;20.64;39.67;98652.34;5052634;28;20180;-44
2021/01/22 09:30:26;;;;;;;0.40;0.40;;;;;;;20.64;39.57;98657.78;5052883;28;20250;-43
2021/01/22 09:32:54;;;;;;;0.50;0.50;;;;;;;20.64;39.59;98663.22;5051969;28;20192;-43
2021/01/22 09:35:21;;;;;;;0.47;0.47;;;;;;;20.65;39.57;98680.34;5050970;28;20214;-43
2021/01/22 09:37:48;;;;;;;0.53;0.40;;;;;;;20.64;39.46;98684.13;5051473;28;20208;-33
2021/01/22 09:40:14;;;;;;;0.40;0.40;;;;;;;20.63;39.50;98677.03;5052436;28;20250;-33
2021/01/22 09:42:40;;;;;;;0.33;0.33;;;;;;;20.63;39.28;98687.91;5061229;28;20249;-34
2021/01/22 09:45:08;;;;;;;0.50;0.50;;;;;;;20.61;39.19;98693.59;5072425;28;20568;-34
2021/01/22 09:47:34;;;;;;;0.50;0.50;;;;;;;20.60;39.23;98694.66;5072193;28;20215;-33
2021/01/22 09:50:01;;;;;;;0.47;0.47;;;;;;;20.60;39.29;98697.38;5072421;28;20179;-34
2021/01/22 09:52:27;;;;;;;0.50;0.47;;;;;;;20.59;39.42;98700.31;5071564;28;20662;-35
2021/01/22 09:54:55;;;;;;;0.40;0.40;;;;;;;20.60;39.35;98710.13;5072526;28;20187;-34
2021/01/22 09:57:21;;;;;;;0.40;0.40;;;;;;;20.59;39.20;98712.00;5052436;28;20217;-36
2021/01/22 09:59:47;;;;;;;0.40;0.40;;;;;;;20.60;39.54;98710.13;5051202;28;20223;-34
2021/01/22 10:02:13;;;;;;;0.37;0.37;;;;;;;20.59;39.31;98720.16;5052225;28;20527;-35
2021/01/22 10:04:39;;;;;;;0.40;0.40;;;;;;;20.59;39.60;98719.34;5052056;28;20279;-35
2021/01/22 10:07:05;;;;;;;0.40;0.40;;;;;;;20.60;39.63;98726.44;5052101;28;20204;-35
2021/01/22 10:09:32;;;;;;;0.30;0.30;;;;;;;20.62;39.71;98727.03;5052213;28;20183;-35
2021/01/22 10:11:58;;;;;;;0.50;0.50;;;;;;;20.62;39.70;98725.16;5059431;28;20536;-44
2021/01/22 10:14:24;;;;;;;0.47;0.40;;;;;;;20.63;39.67;98736.84;5051377;28;20818;-43
2021/01/22 10:16:50;;;;;;;0.40;0.40;;;;;;;20.64;39.69;98733.91;5050718;28;20233;-43
2021/01/22 10:19:16;;;;;;;0.50;0.50;;;;;;;20.64;39.92;98725.75;5052076;28;20500;-43
2021/01/22 10:21:43;;;;;;;0.40;0.40;;;;;;;20.66;39.84;98720.06;5052061;28;20245;-43
2021/01/22 10:24:09;;;;;;;0.40;0.40;;;;;;;20.67;39.65;98732.59;5052156;28;20231;-45
2021/01/22 10:26:35;;;;;;;0.40;0.40;;;;;;;20.68;39.62;98729.66;5053218;28;20212;-43
2021/01/22 10:29:01;;;;;;;0.30;0.30;;;;;;;20.68;39.56;98734.25;5055872;28;20744;-43
2021/01/22 10:31:27;;;;;;;0.50;0.50;;;;;;;20.69;39.66;98741.34;5075179;28;20187;-45
2021/01/22 10:33:54;;;;;;;0.30;0.30;;;;;;;20.69;39.44;98749.50;5074664;28;20194;-43
2021/01/22 10:36:20;;;;;;;0.40;0.40;;;;;;;20.70;39.63;98748.44;5075726;28;20211;-44
2021/01/22 10:38:46;;;;;;;0.40;0.40;;;;;;;20.69;39.36;98753.06;5065190;28;20661;-43
2021/01/22 10:41:12;;;;;;;0.50;0.50;;;;;;;20.70;39.34;98753.88;5066609;28;20195;-44
2021/01/22 10:43:38;;;;;;;0.50;0.50;;;;;;;20.69;39.41;98757.66;5075402;28;20198;-43
2021/01/22 10:46:04;;;;;;;0.57;0.40;;;;;;;20.68;39.24;98762.28;5075260;28;20211;-44
2021/01/22 10:48:31;;;;;;;0.30;0.30;;;;;;;20.67;39.44;98752.47;5071370;28;20261;-44
2021/01/22 10:50:57;;;;;;;0.50;0.50;;;;;;;20.67;39.36;98759.78;5055568;28;20195;-46
2021/01/22 10:53:23;;;;;;;0.50;0.50;;;;;;;20.67;39.34;98759.78;5054380;28;20184;-47
2021/01/22 10:55:50;;;;;;;0.50;0.50;;;;;;;20.64;39.33;98757.53;5055189;28;20204;-47
2021/01/22 10:58:16;;;;;;;0.50;0.50;;;;;;;20.63;39.24;98759.44;5055141;28;20703;-47
2021/01/22 11:00:42;;;;;;;0.63;0.50;;;;;;;20.63;39.13;98764.03;5066477;28;20276;-47
2021/01/22 11:03:08;;;;;;;0.40;0.40;;;;;;;20.62;39.20;98767.81;5075061;28;20282;-47
2021/01/22 11:05:34;;;;;;;0.60;0.60;;;;;;;20.61;39.14;98764.25;5061924;28;20277;-35
2021/01/22 11:08:00;;;;;;;0.60;0.57;;;;;;;20.61;39.12;98764.25;5068549;28;20196;-32
2021/01/22 11:10:26;;;;;;;0.40;0.40;;;;;;;20.60;39.20;98770.75;5069748;28;20180;-46
2021/01/22 11:12:53;;;;;;;0.37;0.30;;;;;;;20.61;39.49;98763.44;5053933;28;20656;-32
2021/01/22 11:15:19;;;;;;;0.50;0.50;;;;;;;20.60;39.49;98773.47;5053471;28;20536;-45
2021/01/22 11:17:45;;;;;;;0.40;0.40;;;;;;;20.60;39.37;98775.38;5053444;28;20221;-43
2021/01/22 11:20:12;;;;;;;0.30;0.30;;;;;;;20.60;39.52;98780.81;5069509;28;20203;-43
2021/01/22 11:22:38;;;;;;;0.40;0.40;;;;;;;20.60;39.68;98781.63;5073727;28;20195;-43
2021/01/22 11:25:05;;;;;;;0.60;0.50;;;;;;;20.62;39.67;98781.41;5073380;28;20649;-42
2021/01/22 11:27:31;;;;;;;0.43;0.40;;;;;;;20.62;39.67;98778.69;5073723;28;20277;-45
2021/01/22 11:29:57;;;;;;;0.40;0.40;;;;;;;20.63;39.70;98783.06;5074325;28;20680;-36
2021/01/22 11:32:23;;;;;;;0.50;0.50;;;;;;;20.63;39.77;98797.47;5074580;28;20265;-33
2021/01/22 11:34:50;;;;;;;0.53;0.53;;;;;;;20.64;39.56;98798.31;5054617;28;20559;-43
2021/01/22 11:37:16;;;;;;;2.10;0.50;;;;;;;20.65;39.96;98802.69;5054010;28;20251;-37